CheckWX is a tool to help pilots better visualize weather data.  It is not intended as a substitute for an official pre-flight weather briefing.

04:36:00 UTC

KPMU METAR
Panola County Airport
Batesville, Mississippi, USA
Current

21 mins ago

KPMU 170415Z AUTO 00000KT 10SM SCT042 05/05 A3005 RMK AO2
Observed
Feb-17 @ 04:15 UTC
Visibility
10 SM
Flight Rules
VFR
Cloud Levels
  • Scattered at 4,200' AGL
Temperature
C / 41°F
Dewpoint
C / 41°F
Humidity
100%
Altimeter
30.05" Hg
Pressure
1017.62 hPa
Previous

41 mins ago

KPMU 170355Z AUTO 00000KT 10SM FEW041 SCT046 05/05 A3004 RMK AO2
Observed
Feb-17 @ 03:55 UTC
Visibility
10 SM
Flight Rules
VFR
Cloud Levels
  • Few at 4,100' AGL
  • Scattered at 4,600' AGL
Temperature
C / 41°F
Dewpoint
C / 41°F
Humidity
100%
Altimeter
30.04" Hg
Pressure
1017.32 hPa
Previous

1 hour ago

KPMU 170335Z AUTO 00000KT 8SM SCT043 05/05 A3005 RMK AO2
Observed
Feb-17 @ 03:35 UTC
Visibility
8 SM
Flight Rules
VFR
Cloud Levels
  • Scattered at 4,300' AGL
Temperature
C / 41°F
Dewpoint
C / 41°F
Humidity
100%
Altimeter
30.05" Hg
Pressure
1017.62 hPa